sensor_id;sensor_type;location;lat;lon;timestamp;P1;durP1;ratioP1;P2;durP2;ratioP2
67528;SDS011;54366;51.980;5.856;2023-03-21T00:01:10;13.40;;;11.73;;
67528;SDS011;54366;51.980;5.856;2023-03-21T00:03:45;12.90;;;10.90;;
67528;SDS011;54366;51.980;5.856;2023-03-21T00:06:20;14.05;;;11.82;;
67528;SDS011;54366;51.980;5.856;2023-03-21T00:08:54;15.95;;;12.57;;
67528;SDS011;54366;51.980;5.856;2023-03-21T00:11:27;14.88;;;11.32;;
67528;SDS011;54366;51.980;5.856;2023-03-21T00:14:00;14.05;;;11.90;;
67528;SDS011;54366;51.980;5.856;2023-03-21T00:16:33;13.82;;;11.95;;
67528;SDS011;54366;51.980;5.856;2023-03-21T00:19:07;17.58;;;15.73;;
67528;SDS011;54366;51.980;5.856;2023-03-21T00:21:41;18.15;;;16.27;;
67528;SDS011;54366;51.980;5.856;2023-03-21T00:24:08;22.65;;;18.85;;
67528;SDS011;54366;51.980;5.856;2023-03-21T00:26:41;20.95;;;17.85;;
67528;SDS011;54366;51.980;5.856;2023-03-21T00:29:07;17.35;;;15.55;;
67528;SDS011;54366;51.980;5.856;2023-03-21T00:31:40;17.10;;;15.40;;
67528;SDS011;54366;51.980;5.856;2023-03-21T00:34:13;19.08;;;15.35;;
67528;SDS011;54366;51.980;5.856;2023-03-21T00:36:52;18.15;;;16.27;;
67528;SDS011;54366;51.980;5.856;2023-03-21T00:39:25;16.50;;;14.38;;
67528;SDS011;54366;51.980;5.856;2023-03-21T00:41:58;17.15;;;15.35;;
67528;SDS011;54366;51.980;5.856;2023-03-21T00:44:31;16.95;;;15.13;;
67528;SDS011;54366;51.980;5.856;2023-03-21T00:47:02;14.57;;;12.88;;
67528;SDS011;54366;51.980;5.856;2023-03-21T00:49:36;16.35;;;14.65;;
67528;SDS011;54366;51.980;5.856;2023-03-21T00:52:09;18.45;;;16.38;;
67528;SDS011;54366;51.980;5.856;2023-03-21T00:54:42;18.75;;;16.50;;
67528;SDS011;54366;51.980;5.856;2023-03-21T00:57:15;16.35;;;14.30;;
67528;SDS011;54366;51.980;5.856;2023-03-21T00:59:43;16.50;;;14.82;;
67528;SDS011;54366;51.980;5.856;2023-03-21T01:02:16;16.40;;;14.70;;
67528;SDS011;54366;51.980;5.856;2023-03-21T01:04:56;18.52;;;15.55;;
67528;SDS011;54366;51.980;5.856;2023-03-21T01:07:29;15.57;;;14.07;;
67528;SDS011;54366;51.980;5.856;2023-03-21T01:10:04;16.02;;;14.40;;
67528;SDS011;54366;51.980;5.856;2023-03-21T01:12:38;21.35;;;17.52;;
67528;SDS011;54366;51.980;5.856;2023-03-21T01:15:11;16.80;;;15.20;;
67528;SDS011;54366;51.980;5.856;2023-03-21T01:17:44;17.58;;;15.73;;
67528;SDS011;54366;51.980;5.856;2023-03-21T01:20:17;17.52;;;15.65;;
67528;SDS011;54366;51.980;5.856;2023-03-21T01:22:50;16.13;;;14.20;;
67528;SDS011;54366;51.980;5.856;2023-03-21T01:25:23;15.95;;;13.98;;
67528;SDS011;54366;51.980;5.856;2023-03-21T01:27:56;15.82;;;14.13;;
67528;SDS011;54366;51.980;5.856;2023-03-21T01:30:29;15.75;;;13.55;;
67528;SDS011;54366;51.980;5.856;2023-03-21T01:33:03;16.13;;;14.52;;
67528;SDS011;54366;51.980;5.856;2023-03-21T01:35:36;16.55;;;14.52;;
67528;SDS011;54366;51.980;5.856;2023-03-21T01:38:09;16.42;;;14.70;;
67528;SDS011;54366;51.980;5.856;2023-03-21T01:40:49;15.80;;;14.10;;
67528;SDS011;54366;51.980;5.856;2023-03-21T01:43:34;15.85;;;13.85;;
67528;SDS011;54366;51.980;5.856;2023-03-21T01:49:19;15.35;;;13.75;;
67528;SDS011;54366;51.980;5.856;2023-03-21T01:52:14;13.80;;;12.43;;
67528;SDS011;54366;51.980;5.856;2023-03-21T01:54:51;17.05;;;15.32;;
67528;SDS011;54366;51.980;5.856;2023-03-21T01:57:31;14.15;;;12.65;;
67528;SDS011;54366;51.980;5.856;2023-03-21T02:00:10;17.17;;;15.38;;
67528;SDS011;54366;51.980;5.856;2023-03-21T02:02:57;14.52;;;13.02;;
67528;SDS011;54366;51.980;5.856;2023-03-21T02:05:54;14.73;;;12.57;;
67528;SDS011;54366;51.980;5.856;2023-03-21T02:08:45;14.27;;;12.77;;
67528;SDS011;54366;51.980;5.856;2023-03-21T02:11:19;14.35;;;12.82;;
67528;SDS011;54366;51.980;5.856;2023-03-21T02:13:53;14.88;;;12.57;;
67528;SDS011;54366;51.980;5.856;2023-03-21T02:16:36;16.45;;;13.68;;
67528;SDS011;54366;51.980;5.856;2023-03-21T02:19:54;13.82;;;12.43;;
67528;SDS011;54366;51.980;5.856;2023-03-21T02:23:37;15.93;;;12.70;;
67528;SDS011;54366;51.980;5.856;2023-03-21T02:29:43;14.97;;;12.33;;
67528;SDS011;54366;51.980;5.856;2023-03-21T02:36:27;16.00;;;14.30;;
67528;SDS011;54366;51.980;5.856;2023-03-21T02:39:11;14.63;;;13.10;;
67528;SDS011;54366;51.980;5.856;2023-03-21T02:42:08;17.38;;;15.57;;
67528;SDS011;54366;51.980;5.856;2023-03-21T02:45:04;18.20;;;16.30;;
67528;SDS011;54366;51.980;5.856;2023-03-21T02:47:49;17.33;;;14.68;;
67528;SDS011;54366;51.980;5.856;2023-03-21T02:50:42;17.08;;;15.27;;
67528;SDS011;54366;51.980;5.856;2023-03-21T02:53:20;16.63;;;14.95;;
67528;SDS011;54366;51.980;5.856;2023-03-21T02:55:58;16.45;;;14.77;;
67528;SDS011;54366;51.980;5.856;2023-03-21T02:58:33;15.07;;;12.50;;
67528;SDS011;54366;51.980;5.856;2023-03-21T03:01:04;15.52;;;12.90;;
67528;SDS011;54366;51.980;5.856;2023-03-21T03:03:47;12.40;;;11.30;;
67528;SDS011;54366;51.980;5.856;2023-03-21T03:06:23;14.32;;;12.90;;
67528;SDS011;54366;51.980;5.856;2023-03-21T03:09:06;14.52;;;13.00;;
67528;SDS011;54366;51.980;5.856;2023-03-21T03:12:16;16.13;;;13.77;;
67528;SDS011;54366;51.980;5.856;2023-03-21T03:15:04;14.45;;;12.95;;
67528;SDS011;54366;51.980;5.856;2023-03-21T03:21:09;15.32;;;13.73;;
67528;SDS011;54366;51.980;5.856;2023-03-21T03:23:52;22.58;;;19.77;;
67528;SDS011;54366;51.980;5.856;2023-03-21T03:26:37;16.58;;;14.88;;
67528;SDS011;54366;51.980;5.856;2023-03-21T03:29:16;15.90;;;14.30;;
67528;SDS011;54366;51.980;5.856;2023-03-21T03:31:53;14.25;;;12.68;;
67528;SDS011;54366;51.980;5.856;2023-03-21T03:34:36;14.23;;;12.25;;
67528;SDS011;54366;51.980;5.856;2023-03-21T03:37:20;14.35;;;12.95;;
67528;SDS011;54366;51.980;5.856;2023-03-21T03:40:17;13.77;;;12.38;;
67528;SDS011;54366;51.980;5.856;2023-03-21T03:43:38;13.25;;;11.93;;
67528;SDS011;54366;51.980;5.856;2023-03-21T03:49:31;16.30;;;14.60;;
67528;SDS011;54366;51.980;5.856;2023-03-21T03:52:17;15.00;;;13.48;;
67528;SDS011;54366;51.980;5.856;2023-03-21T03:54:59;13.27;;;11.88;;
67528;SDS011;54366;51.980;5.856;2023-03-21T03:57:36;17.45;;;12.75;;
67528;SDS011;54366;51.980;5.856;2023-03-21T04:00:10;12.63;;;11.32;;
67528;SDS011;54366;51.980;5.856;2023-03-21T04:02:46;12.00;;;10.35;;
67528;SDS011;54366;51.980;5.856;2023-03-21T04:05:22;15.18;;;11.18;;
67528;SDS011;54366;51.980;5.856;2023-03-21T04:07:55;11.17;;;9.40;;
67528;SDS011;54366;51.980;5.856;2023-03-21T04:10:31;12.63;;;10.32;;
67528;SDS011;54366;51.980;5.856;2023-03-21T04:13:04;13.38;;;11.23;;
67528;SDS011;54366;51.980;5.856;2023-03-21T04:15:50;16.42;;;10.77;;
67528;SDS011;54366;51.980;5.856;2023-03-21T04:18:23;11.20;;;9.10;;
67528;SDS011;54366;51.980;5.856;2023-03-21T04:20:57;13.50;;;10.27;;
67528;SDS011;54366;51.980;5.856;2023-03-21T04:23:29;10.13;;;8.38;;
67528;SDS011;54366;51.980;5.856;2023-03-21T04:26:02;9.65;;;7.20;;
67528;SDS011;54366;51.980;5.856;2023-03-21T04:28:42;12.55;;;8.50;;
67528;SDS011;54366;51.980;5.856;2023-03-21T04:31:41;11.18;;;8.88;;
67528;SDS011;54366;51.980;5.856;2023-03-21T04:34:15;10.50;;;8.55;;
67528;SDS011;54366;51.980;5.856;2023-03-21T04:36:49;10.13;;;8.40;;
67528;SDS011;54366;51.980;5.856;2023-03-21T04:39:32;10.32;;;8.43;;
67528;SDS011;54366;51.980;5.856;2023-03-21T04:42:05;10.30;;;8.63;;
67528;SDS011;54366;51.980;5.856;2023-03-21T04:44:39;11.55;;;8.63;;
67528;SDS011;54366;51.980;5.856;2023-03-21T04:47:13;12.40;;;9.45;;
67528;SDS011;54366;51.980;5.856;2023-03-21T04:49:47;12.50;;;8.68;;
67528;SDS011;54366;51.980;5.856;2023-03-21T04:52:14;10.00;;;7.85;;
67528;SDS011;54366;51.980;5.856;2023-03-21T04:54:47;9.88;;;7.43;;
67528;SDS011;54366;51.980;5.856;2023-03-21T04:57:20;10.52;;;8.30;;
67528;SDS011;54366;51.980;5.856;2023-03-21T04:59:53;9.48;;;7.90;;
67528;SDS011;54366;51.980;5.856;2023-03-21T05:02:21;9.93;;;8.07;;
67528;SDS011;54366;51.980;5.856;2023-03-21T05:04:54;12.07;;;7.67;;
67528;SDS011;54366;51.980;5.856;2023-03-21T05:07:29;11.13;;;7.93;;
67528;SDS011;54366;51.980;5.856;2023-03-21T05:09:57;10.85;;;7.60;;
67528;SDS011;54366;51.980;5.856;2023-03-21T05:12:30;9.97;;;6.93;;
67528;SDS011;54366;51.980;5.856;2023-03-21T05:15:04;11.17;;;8.00;;
67528;SDS011;54366;51.980;5.856;2023-03-21T05:17:38;9.30;;;7.30;;
67528;SDS011;54366;51.980;5.856;2023-03-21T05:20:14;9.25;;;7.82;;
67528;SDS011;54366;51.980;5.856;2023-03-21T05:25:22;10.95;;;7.65;;
67528;SDS011;54366;51.980;5.856;2023-03-21T05:28:16;12.75;;;9.13;;
67528;SDS011;54366;51.980;5.856;2023-03-21T05:30:51;12.68;;;8.77;;
67528;SDS011;54366;51.980;5.856;2023-03-21T05:33:18;13.55;;;8.70;;
67528;SDS011;54366;51.980;5.856;2023-03-21T05:35:51;11.20;;;8.67;;
67528;SDS011;54366;51.980;5.856;2023-03-21T05:38:28;13.25;;;9.15;;
67528;SDS011;54366;51.980;5.856;2023-03-21T05:41:08;11.55;;;8.13;;
67528;SDS011;54366;51.980;5.856;2023-03-21T05:43:41;10.40;;;7.90;;
67528;SDS011;54366;51.980;5.856;2023-03-21T05:46:09;11.80;;;7.85;;
67528;SDS011;54366;51.980;5.856;2023-03-21T05:48:42;10.83;;;7.20;;
67528;SDS011;54366;51.980;5.856;2023-03-21T05:53:49;10.23;;;7.82;;
67528;SDS011;54366;51.980;5.856;2023-03-21T05:56:24;11.63;;;8.27;;
67528;SDS011;54366;51.980;5.856;2023-03-21T05:58:59;10.63;;;8.10;;
67528;SDS011;54366;51.980;5.856;2023-03-21T06:01:38;9.98;;;7.30;;
67528;SDS011;54366;51.980;5.856;2023-03-21T06:04:14;9.32;;;7.03;;
67528;SDS011;54366;51.980;5.856;2023-03-21T06:06:47;9.13;;;7.18;;
67528;SDS011;54366;51.980;5.856;2023-03-21T06:09:24;9.63;;;6.85;;
67528;SDS011;54366;51.980;5.856;2023-03-21T06:11:56;12.65;;;8.15;;
67528;SDS011;54366;51.980;5.856;2023-03-21T06:14:34;12.10;;;7.65;;
67528;SDS011;54366;51.980;5.856;2023-03-21T06:17:15;12.18;;;7.25;;
67528;SDS011;54366;51.980;5.856;2023-03-21T06:19:54;7.50;;;6.65;;
67528;SDS011;54366;51.980;5.856;2023-03-21T06:22:32;10.90;;;7.28;;
67528;SDS011;54366;51.980;5.856;2023-03-21T06:25:06;8.60;;;7.07;;
67528;SDS011;54366;51.980;5.856;2023-03-21T06:27:40;10.45;;;7.53;;
67528;SDS011;54366;51.980;5.856;2023-03-21T06:30:14;10.60;;;6.53;;
67528;SDS011;54366;51.980;5.856;2023-03-21T06:33:07;15.70;;;8.93;;
67528;SDS011;54366;51.980;5.856;2023-03-21T06:35:42;12.40;;;8.07;;
67528;SDS011;54366;51.980;5.856;2023-03-21T06:38:24;11.90;;;6.70;;
67528;SDS011;54366;51.980;5.856;2023-03-21T06:41:05;9.73;;;7.38;;
67528;SDS011;54366;51.980;5.856;2023-03-21T06:43:43;10.43;;;7.32;;
67528;SDS011;54366;51.980;5.856;2023-03-21T06:46:18;10.57;;;7.25;;
67528;SDS011;54366;51.980;5.856;2023-03-21T06:48:51;12.05;;;7.65;;
67528;SDS011;54366;51.980;5.856;2023-03-21T06:51:24;11.17;;;7.40;;
67528;SDS011;54366;51.980;5.856;2023-03-21T06:54:05;10.43;;;7.00;;
67528;SDS011;54366;51.980;5.856;2023-03-21T06:56:49;8.90;;;6.60;;
67528;SDS011;54366;51.980;5.856;2023-03-21T06:59:26;8.45;;;6.38;;
67528;SDS011;54366;51.980;5.856;2023-03-21T07:02:02;11.10;;;7.30;;
67528;SDS011;54366;51.980;5.856;2023-03-21T07:04:40;9.32;;;5.93;;
67528;SDS011;54366;51.980;5.856;2023-03-21T07:07:18;8.90;;;5.95;;
67528;SDS011;54366;51.980;5.856;2023-03-21T07:09:51;7.78;;;6.30;;
67528;SDS011;54366;51.980;5.856;2023-03-21T07:12:28;8.90;;;6.43;;
67528;SDS011;54366;51.980;5.856;2023-03-21T07:15:12;11.30;;;6.25;;
67528;SDS011;54366;51.980;5.856;2023-03-21T07:17:46;8.87;;;6.10;;
67528;SDS011;54366;51.980;5.856;2023-03-21T07:20:18;8.20;;;5.93;;
67528;SDS011;54366;51.980;5.856;2023-03-21T07:22:51;8.70;;;5.50;;
67528;SDS011;54366;51.980;5.856;2023-03-21T07:25:26;12.25;;;6.60;;
67528;SDS011;54366;51.980;5.856;2023-03-21T07:27:59;8.32;;;6.32;;
67528;SDS011;54366;51.980;5.856;2023-03-21T07:30:32;8.88;;;5.90;;
67528;SDS011;54366;51.980;5.856;2023-03-21T07:33:06;11.65;;;7.38;;
67528;SDS011;54366;51.980;5.856;2023-03-21T07:35:39;10.82;;;6.63;;
67528;SDS011;54366;51.980;5.856;2023-03-21T07:38:19;8.80;;;6.70;;
67528;SDS011;54366;51.980;5.856;2023-03-21T07:40:52;9.70;;;6.20;;
67528;SDS011;54366;51.980;5.856;2023-03-21T07:43:28;8.80;;;6.55;;
67528;SDS011;54366;51.980;5.856;2023-03-21T07:46:01;10.95;;;6.68;;
67528;SDS011;54366;51.980;5.856;2023-03-21T07:48:34;8.90;;;6.43;;
67528;SDS011;54366;51.980;5.856;2023-03-21T07:51:01;9.30;;;6.32;;
67528;SDS011;54366;51.980;5.856;2023-03-21T07:53:34;10.43;;;6.82;;
67528;SDS011;54366;51.980;5.856;2023-03-21T07:56:01;10.93;;;7.10;;
67528;SDS011;54366;51.980;5.856;2023-03-21T07:58:33;13.07;;;6.90;;
67528;SDS011;54366;51.980;5.856;2023-03-21T08:01:06;10.50;;;6.85;;
67528;SDS011;54366;51.980;5.856;2023-03-21T08:03:39;9.23;;;6.30;;
67528;SDS011;54366;51.980;5.856;2023-03-21T08:06:12;9.13;;;6.15;;
67528;SDS011;54366;51.980;5.856;2023-03-21T08:08:46;11.10;;;6.50;;
67528;SDS011;54366;51.980;5.856;2023-03-21T08:11:19;9.48;;;6.05;;
67528;SDS011;54366;51.980;5.856;2023-03-21T08:13:53;12.45;;;7.10;;
67528;SDS011;54366;51.980;5.856;2023-03-21T08:16:27;9.15;;;5.50;;
67528;SDS011;54366;51.980;5.856;2023-03-21T08:19:00;12.88;;;7.00;;
67528;SDS011;54366;51.980;5.856;2023-03-21T08:21:33;9.85;;;6.55;;
67528;SDS011;54366;51.980;5.856;2023-03-21T08:24:07;11.30;;;5.55;;
67528;SDS011;54366;51.980;5.856;2023-03-21T08:26:33;12.70;;;7.18;;
67528;SDS011;54366;51.980;5.856;2023-03-21T08:29:07;11.43;;;6.55;;
67528;SDS011;54366;51.980;5.856;2023-03-21T08:31:48;11.30;;;6.72;;
67528;SDS011;54366;51.980;5.856;2023-03-21T08:34:33;10.77;;;6.68;;
67528;SDS011;54366;51.980;5.856;2023-03-21T08:37:06;11.55;;;6.15;;
67528;SDS011;54366;51.980;5.856;2023-03-21T08:39:39;10.38;;;6.03;;
67528;SDS011;54366;51.980;5.856;2023-03-21T08:42:19;9.98;;;6.45;;
67528;SDS011;54366;51.980;5.856;2023-03-21T08:44:53;10.23;;;6.15;;
67528;SDS011;54366;51.980;5.856;2023-03-21T08:47:26;12.52;;;7.32;;
67528;SDS011;54366;51.980;5.856;2023-03-21T08:49:59;10.50;;;5.97;;
67528;SDS011;54366;51.980;5.856;2023-03-21T08:52:32;9.95;;;6.65;;
67528;SDS011;54366;51.980;5.856;2023-03-21T08:55:05;9.02;;;5.35;;
67528;SDS011;54366;51.980;5.856;2023-03-21T08:57:39;8.65;;;5.65;;
67528;SDS011;54366;51.980;5.856;2023-03-21T09:00:13;11.00;;;6.40;;
67528;SDS011;54366;51.980;5.856;2023-03-21T09:02:49;8.70;;;5.80;;
67528;SDS011;54366;51.980;5.856;2023-03-21T09:05:24;11.02;;;6.47;;
67528;SDS011;54366;51.980;5.856;2023-03-21T09:07:58;10.30;;;5.68;;
67528;SDS011;54366;51.980;5.856;2023-03-21T09:10:32;12.55;;;6.75;;
67528;SDS011;54366;51.980;5.856;2023-03-21T09:13:05;10.88;;;6.03;;
67528;SDS011;54366;51.980;5.856;2023-03-21T09:15:38;8.48;;;6.07;;
67528;SDS011;54366;51.980;5.856;2023-03-21T09:18:04;8.90;;;6.25;;
67528;SDS011;54366;51.980;5.856;2023-03-21T09:23:22;9.50;;;6.15;;
67528;SDS011;54366;51.980;5.856;2023-03-21T09:25:55;9.10;;;6.43;;
67528;SDS011;54366;51.980;5.856;2023-03-21T09:28:28;11.50;;;6.82;;
67528;SDS011;54366;51.980;5.856;2023-03-21T09:31:02;11.73;;;7.13;;
67528;SDS011;54366;51.980;5.856;2023-03-21T09:33:35;9.73;;;6.50;;
67528;SDS011;54366;51.980;5.856;2023-03-21T09:36:03;11.02;;;6.53;;
67528;SDS011;54366;51.980;5.856;2023-03-21T09:38:44;10.30;;;6.68;;
67528;SDS011;54366;51.980;5.856;2023-03-21T09:41:21;8.63;;;6.68;;
67528;SDS011;54366;51.980;5.856;2023-03-21T09:47:26;9.13;;;6.38;;
67528;SDS011;54366;51.980;5.856;2023-03-21T09:50:09;9.02;;;6.28;;
67528;SDS011;54366;51.980;5.856;2023-03-21T09:52:55;11.13;;;5.65;;
67528;SDS011;54366;51.980;5.856;2023-03-21T09:55:32;9.07;;;5.90;;
67528;SDS011;54366;51.980;5.856;2023-03-21T10:01:28;9.20;;;6.38;;
67528;SDS011;54366;51.980;5.856;2023-03-21T10:04:04;10.18;;;6.63;;
67528;SDS011;54366;51.980;5.856;2023-03-21T10:06:38;11.38;;;7.03;;
67528;SDS011;54366;51.980;5.856;2023-03-21T10:09:14;10.55;;;6.28;;
67528;SDS011;54366;51.980;5.856;2023-03-21T10:11:57;10.23;;;6.30;;
67528;SDS011;54366;51.980;5.856;2023-03-21T10:14:37;10.63;;;7.00;;
67528;SDS011;54366;51.980;5.856;2023-03-21T10:20:24;9.23;;;5.93;;
67528;SDS011;54366;51.980;5.856;2023-03-21T10:23:05;11.15;;;6.05;;
67528;SDS011;54366;51.980;5.856;2023-03-21T10:25:41;8.57;;;5.40;;
67528;SDS011;54366;51.980;5.856;2023-03-21T10:28:20;8.02;;;6.20;;
67528;SDS011;54366;51.980;5.856;2023-03-21T10:31:03;11.05;;;5.65;;
67528;SDS011;54366;51.980;5.856;2023-03-21T10:33:39;8.85;;;5.30;;
67528;SDS011;54366;51.980;5.856;2023-03-21T10:36:19;9.35;;;5.63;;
67528;SDS011;54366;51.980;5.856;2023-03-21T10:39:07;7.53;;;5.13;;
67528;SDS011;54366;51.980;5.856;2023-03-21T10:41:53;7.15;;;4.80;;
67528;SDS011;54366;51.980;5.856;2023-03-21T10:44:30;9.93;;;5.30;;
67528;SDS011;54366;51.980;5.856;2023-03-21T10:47:08;8.68;;;5.38;;
67528;SDS011;54366;51.980;5.856;2023-03-21T10:49:41;6.82;;;5.55;;
67528;SDS011;54366;51.980;5.856;2023-03-21T10:52:19;7.90;;;5.25;;
67528;SDS011;54366;51.980;5.856;2023-03-21T10:55:04;9.80;;;5.70;;
67528;SDS011;54366;51.980;5.856;2023-03-21T11:00:29;9.88;;;5.80;;
67528;SDS011;54366;51.980;5.856;2023-03-21T11:03:23;9.50;;;6.55;;
67528;SDS011;54366;51.980;5.856;2023-03-21T11:08:49;9.05;;;6.15;;
67528;SDS011;54366;51.980;5.856;2023-03-21T11:11:27;8.50;;;5.63;;
67528;SDS011;54366;51.980;5.856;2023-03-21T11:14:23;8.23;;;5.70;;
67528;SDS011;54366;51.980;5.856;2023-03-21T11:20:09;10.23;;;6.10;;
67528;SDS011;54366;51.980;5.856;2023-03-21T11:22:49;8.93;;;5.90;;
67528;SDS011;54366;51.980;5.856;2023-03-21T11:25:31;8.63;;;5.70;;
67528;SDS011;54366;51.980;5.856;2023-03-21T11:28:20;7.57;;;5.57;;
67528;SDS011;54366;51.980;5.856;2023-03-21T11:30:56;8.52;;;5.85;;
67528;SDS011;54366;51.980;5.856;2023-03-21T11:33:32;7.80;;;5.10;;
67528;SDS011;54366;51.980;5.856;2023-03-21T11:39:28;9.93;;;5.43;;
67528;SDS011;54366;51.980;5.856;2023-03-21T11:42:28;8.50;;;5.68;;
67528;SDS011;54366;51.980;5.856;2023-03-21T11:45:04;8.63;;;5.53;;
67528;SDS011;54366;51.980;5.856;2023-03-21T11:47:46;8.57;;;5.70;;
67528;SDS011;54366;51.980;5.856;2023-03-21T11:53:30;8.75;;;5.30;;
67528;SDS011;54366;51.980;5.856;2023-03-21T11:56:34;8.52;;;5.57;;
67528;SDS011;54366;51.980;5.856;2023-03-21T12:05:57;10.23;;;5.13;;
67528;SDS011;54366;51.980;5.856;2023-03-21T12:08:40;7.88;;;5.60;;
67528;SDS011;54366;51.980;5.856;2023-03-21T12:11:32;6.05;;;4.90;;
67528;SDS011;54366;51.980;5.856;2023-03-21T12:17:55;10.15;;;4.38;;
67528;SDS011;54366;51.980;5.856;2023-03-21T12:20:53;8.75;;;5.50;;
67528;SDS011;54366;51.980;5.856;2023-03-21T12:29:35;6.63;;;3.80;;
67528;SDS011;54366;51.980;5.856;2023-03-21T12:32:36;7.47;;;4.43;;
67528;SDS011;54366;51.980;5.856;2023-03-21T12:35:47;8.60;;;4.80;;
67528;SDS011;54366;51.980;5.856;2023-03-21T12:39:06;5.72;;;4.50;;
67528;SDS011;54366;51.980;5.856;2023-03-21T12:43:32;5.68;;;4.05;;
67528;SDS011;54366;51.980;5.856;2023-03-21T12:45:14;10.85;;;5.65;;
67528;SDS011;54366;51.980;5.856;2023-03-21T12:47:54;6.68;;;3.97;;
67528;SDS011;54366;51.980;5.856;2023-03-21T12:50:44;7.03;;;4.35;;
67528;SDS011;54366;51.980;5.856;2023-03-21T12:56:21;5.95;;;4.03;;
67528;SDS011;54366;51.980;5.856;2023-03-21T12:59:40;7.95;;;4.30;;
67528;SDS011;54366;51.980;5.856;2023-03-21T13:03:31;5.55;;;4.07;;
67528;SDS011;54366;51.980;5.856;2023-03-21T13:10:55;7.13;;;4.45;;
67528;SDS011;54366;51.980;5.856;2023-03-21T13:13:33;10.02;;;4.85;;
67528;SDS011;54366;51.980;5.856;2023-03-21T13:16:22;7.13;;;4.03;;
67528;SDS011;54366;51.980;5.856;2023-03-21T13:19:22;6.82;;;4.22;;
67528;SDS011;54366;51.980;5.856;2023-03-21T13:25:14;6.75;;;3.90;;
67528;SDS011;54366;51.980;5.856;2023-03-21T13:28:00;6.28;;;3.60;;
67528;SDS011;54366;51.980;5.856;2023-03-21T13:30:35;7.40;;;4.00;;
67528;SDS011;54366;51.980;5.856;2023-03-21T13:33:10;6.28;;;3.63;;
67528;SDS011;54366;51.980;5.856;2023-03-21T13:35:49;9.45;;;4.38;;
67528;SDS011;54366;51.980;5.856;2023-03-21T13:38:49;6.40;;;3.35;;
67528;SDS011;54366;51.980;5.856;2023-03-21T13:41:38;7.20;;;4.28;;
67528;SDS011;54366;51.980;5.856;2023-03-21T13:44:24;5.43;;;3.88;;
67528;SDS011;54366;51.980;5.856;2023-03-21T13:47:05;8.23;;;3.75;;
67528;SDS011;54366;51.980;5.856;2023-03-21T13:50:21;7.73;;;3.90;;
67528;SDS011;54366;51.980;5.856;2023-03-21T13:53:18;6.35;;;4.30;;
67528;SDS011;54366;51.980;5.856;2023-03-21T13:59:02;8.40;;;3.83;;
67528;SDS011;54366;51.980;5.856;2023-03-21T14:01:39;5.70;;;3.97;;
67528;SDS011;54366;51.980;5.856;2023-03-21T14:04:15;5.30;;;4.00;;
67528;SDS011;54366;51.980;5.856;2023-03-21T14:06:52;5.43;;;4.03;;
67528;SDS011;54366;51.980;5.856;2023-03-21T14:09:41;7.82;;;4.32;;
67528;SDS011;54366;51.980;5.856;2023-03-21T14:12:18;7.57;;;4.07;;
67528;SDS011;54366;51.980;5.856;2023-03-21T14:15:02;7.03;;;4.15;;
67528;SDS011;54366;51.980;5.856;2023-03-21T14:17:47;4.55;;;3.97;;
67528;SDS011;54366;51.980;5.856;2023-03-21T14:20:28;4.90;;;3.60;;
67528;SDS011;54366;51.980;5.856;2023-03-21T14:23:06;6.18;;;4.25;;
67528;SDS011;54366;51.980;5.856;2023-03-21T14:25:43;6.10;;;4.05;;
67528;SDS011;54366;51.980;5.856;2023-03-21T14:28:22;5.80;;;4.10;;
67528;SDS011;54366;51.980;5.856;2023-03-21T14:30:57;6.20;;;4.10;;
67528;SDS011;54366;51.980;5.856;2023-03-21T14:33:34;6.32;;;4.20;;
67528;SDS011;54366;51.980;5.856;2023-03-21T14:36:21;5.97;;;3.95;;
67528;SDS011;54366;51.980;5.856;2023-03-21T14:39:09;5.25;;;3.42;;
67528;SDS011;54366;51.980;5.856;2023-03-21T14:42:10;7.07;;;3.78;;
67528;SDS011;54366;51.980;5.856;2023-03-21T14:44:48;6.15;;;3.42;;
67528;SDS011;54366;51.980;5.856;2023-03-21T14:47:24;3.90;;;3.17;;
67528;SDS011;54366;51.980;5.856;2023-03-21T14:50:00;3.92;;;3.47;;
67528;SDS011;54366;51.980;5.856;2023-03-21T14:52:33;6.85;;;3.90;;
67528;SDS011;54366;51.980;5.856;2023-03-21T14:55:00;5.03;;;3.65;;
67528;SDS011;54366;51.980;5.856;2023-03-21T14:57:36;4.72;;;3.20;;
67528;SDS011;54366;51.980;5.856;2023-03-21T15:00:22;3.67;;;2.90;;
67528;SDS011;54366;51.980;5.856;2023-03-21T15:02:57;4.03;;;2.80;;
67528;SDS011;54366;51.980;5.856;2023-03-21T15:05:32;4.80;;;3.50;;
67528;SDS011;54366;51.980;5.856;2023-03-21T15:08:14;5.50;;;3.22;;
67528;SDS011;54366;51.980;5.856;2023-03-21T15:10:57;4.40;;;3.35;;
67528;SDS011;54366;51.980;5.856;2023-03-21T15:13:36;4.43;;;3.30;;
67528;SDS011;54366;51.980;5.856;2023-03-21T15:16:17;4.80;;;3.22;;
67528;SDS011;54366;51.980;5.856;2023-03-21T15:18:51;5.97;;;3.10;;
67528;SDS011;54366;51.980;5.856;2023-03-21T15:21:29;6.55;;;3.80;;
67528;SDS011;54366;51.980;5.856;2023-03-21T15:24:06;4.90;;;3.40;;
67528;SDS011;54366;51.980;5.856;2023-03-21T15:26:46;6.00;;;3.42;;
67528;SDS011;54366;51.980;5.856;2023-03-21T15:29:26;5.15;;;2.95;;
67528;SDS011;54366;51.980;5.856;2023-03-21T15:32:06;3.65;;;2.88;;
67528;SDS011;54366;51.980;5.856;2023-03-21T15:34:43;3.75;;;2.88;;
67528;SDS011;54366;51.980;5.856;2023-03-21T15:37:21;5.40;;;3.50;;
67528;SDS011;54366;51.980;5.856;2023-03-21T15:40:08;4.70;;;2.58;;
67528;SDS011;54366;51.980;5.856;2023-03-21T15:43:29;4.43;;;2.90;;
67528;SDS011;54366;51.980;5.856;2023-03-21T15:45:55;4.93;;;3.33;;
67528;SDS011;54366;51.980;5.856;2023-03-21T15:48:28;6.18;;;3.60;;
67528;SDS011;54366;51.980;5.856;2023-03-21T15:51:06;5.95;;;3.47;;
67528;SDS011;54366;51.980;5.856;2023-03-21T15:53:42;5.13;;;3.30;;
67528;SDS011;54366;51.980;5.856;2023-03-21T15:56:09;3.70;;;2.78;;
67528;SDS011;54366;51.980;5.856;2023-03-21T15:58:47;4.40;;;3.05;;
67528;SDS011;54366;51.980;5.856;2023-03-21T16:01:22;3.92;;;3.53;;
67528;SDS011;54366;51.980;5.856;2023-03-21T16:04:01;4.75;;;3.60;;
67528;SDS011;54366;51.980;5.856;2023-03-21T16:06:38;5.22;;;3.67;;
67528;SDS011;54366;51.980;5.856;2023-03-21T16:09:41;3.25;;;2.90;;
67528;SDS011;54366;51.980;5.856;2023-03-21T16:12:15;3.40;;;2.88;;
67528;SDS011;54366;51.980;5.856;2023-03-21T16:14:48;4.70;;;3.58;;
67528;SDS011;54366;51.980;5.856;2023-03-21T16:17:32;4.13;;;3.30;;
67528;SDS011;54366;51.980;5.856;2023-03-21T16:23:14;3.28;;;2.90;;
67528;SDS011;54366;51.980;5.856;2023-03-21T16:25:47;5.07;;;3.78;;
67528;SDS011;54366;51.980;5.856;2023-03-21T16:28:26;4.65;;;3.72;;
67528;SDS011;54366;51.980;5.856;2023-03-21T16:31:08;4.00;;;2.67;;
67528;SDS011;54366;51.980;5.856;2023-03-21T16:33:46;3.63;;;3.20;;
67528;SDS011;54366;51.980;5.856;2023-03-21T16:36:20;3.35;;;3.00;;
67528;SDS011;54366;51.980;5.856;2023-03-21T16:38:59;4.78;;;3.70;;
67528;SDS011;54366;51.980;5.856;2023-03-21T16:41:32;3.88;;;3.58;;
67528;SDS011;54366;51.980;5.856;2023-03-21T16:44:05;5.15;;;3.90;;
67528;SDS011;54366;51.980;5.856;2023-03-21T16:46:38;3.97;;;3.22;;
67528;SDS011;54366;51.980;5.856;2023-03-21T16:49:19;3.42;;;3.13;;
67528;SDS011;54366;51.980;5.856;2023-03-21T16:51:55;5.35;;;3.88;;
67528;SDS011;54366;51.980;5.856;2023-03-21T16:54:28;7.07;;;4.32;;
67528;SDS011;54366;51.980;5.856;2023-03-21T16:57:01;5.28;;;4.65;;
67528;SDS011;54366;51.980;5.856;2023-03-21T16:59:35;6.03;;;4.88;;
67528;SDS011;54366;51.980;5.856;2023-03-21T17:02:12;6.53;;;5.50;;
67528;SDS011;54366;51.980;5.856;2023-03-21T17:07:13;6.70;;;5.22;;
67528;SDS011;54366;51.980;5.856;2023-03-21T17:09:46;5.35;;;4.40;;
67528;SDS011;54366;51.980;5.856;2023-03-21T17:12:19;5.25;;;4.20;;
67528;SDS011;54366;51.980;5.856;2023-03-21T17:14:52;4.88;;;4.18;;